Item Display Status Humidity-temperature Sensor

Elevation Above Sea Level: 3 m

 

Deployed Sensor

  • Serial Number: 61303725
  • NDBC Property Number: 38751
  • Start Date: 10/28/2016 (13:31:42 Z)
  • End Date: Currently Active
Relative Humidity [%]     6 entries per hour
Showing data from 4/9/2017 (16:30:00 Z) to 4/8/2017 (00:00:01 Z)
Previous Next [ Day | 3-Days | 7-Days ]
First Last
Prev [ Day | 3-Days | 7-Days ] Next
First Last

Start Time:     :
End Time:     :     
Time (in GMT) :00 :50 :40 :30 :20 :10
Previous Next [ Day | 3-Days | 7-Days ]
First Last
Prev [ Day | 3-Days | 7-Days ] Next
First Last


123 => good data
MM => data is determined as missing
-- => data not received/configured
Back to Top Back to Top
4/9/2017 17:00 to 16:10 -- -- -- 90.20 91.59 91.55
4/9/2017 16:00 to 15:10 90.22 89.98 91.76 92.33 89.83 90.75
4/9/2017 15:00 to 14:10 91.68 91.12 91.43 91.31 91.08 90.98
4/9/2017 14:00 to 13:10 90.22 91.80 91.68 91.88 94.67 95.02
4/9/2017 13:00 to 12:10 93.23 91.31 91.47 91.33 92.60 92.48
4/9/2017 12:00 to 11:10 91.80 91.23 91.90 92.78 92.64 95.08
4/9/2017 11:00 to 10:10 95.45 93.48 92.52 92.89 92.82 93.34
4/9/2017 10:00 to 9:10 92.97 92.48 93.17 92.70 93.36 93.19
4/9/2017 09:00 to 8:10 92.33 91.27 92.21 94.83 94.48 95.51
4/9/2017 08:00 to 7:10 95.75 95.61 92.82 90.45 92.86 93.01
4/9/2017 07:00 to 6:10 92.02 92.11 91.76 90.73 89.50 90.43
4/9/2017 06:00 to 5:10 90.08 91.86 91.59 91.27 89.87 92.19
4/9/2017 05:00 to 4:10 91.47 91.70 92.50 91.96 89.93 90.06
4/9/2017 04:00 to 3:10 90.86 90.59 89.32 89.91 89.59 89.46
4/9/2017 03:00 to 2:10 88.91 90.16 89.13 89.59 89.22 90.24
4/9/2017 02:00 to 1:10 89.69 89.50 90.88 91.49 91.14 89.22
4/9/2017 01:00 to 0:10 89.13 89.85 89.91 88.52 88.81 89.98
4/9/2017 00:00 to 23:10 91.41 91.92 89.75 88.23 86.94 90.88
4/8/2017 23:00 to 22:10 94.40 89.22 89.44 89.71 88.99 89.48
4/8/2017 22:00 to 21:10 88.58 91.18 87.37 88.13 89.85 90.10
4/8/2017 21:00 to 20:10 88.77 88.29 88.70 90.06 90.18 88.19
4/8/2017 20:00 to 19:10 89.03 89.11 87.80 90.14 89.22 90.69
4/8/2017 19:00 to 18:10 89.79 89.05 89.24 90.04 88.91 88.15
4/8/2017 18:00 to 17:10 88.72 88.81 87.54 87.97 84.99 86.49
4/8/2017 17:00 to 16:10 87.50 88.85 88.29 86.94 87.78 86.41
4/8/2017 16:00 to 15:10 -- -- -- -- -- --
4/8/2017 15:00 to 14:10 89.63 89.65 89.48 89.57 89.73 89.61
4/8/2017 14:00 to 13:10 89.87 90.65 89.65 90.45 91.92 91.78
4/8/2017 13:00 to 12:10 94.65 92.95 91.47 90.47 94.77 92.27
4/8/2017 12:00 to 11:10 91.51 90.34 91.41 91.78 92.64 91.80
4/8/2017 11:00 to 10:10 91.94 91.47 90.82 92.99 90.94 92.45
4/8/2017 10:00 to 9:10 90.69 91.90 92.78 92.43 92.84 92.11
4/8/2017 09:00 to 8:10 92.29 92.97 91.94 93.21 92.43 93.75
4/8/2017 08:00 to 7:10 95.49 95.90 94.42 91.61 91.37 94.11
4/8/2017 07:00 to 6:10 93.44 92.45 92.25 92.72 92.68 92.23
4/8/2017 06:00 to 5:10 90.84 91.55 91.86 94.05 93.97 93.40
4/8/2017 05:00 to 4:10 96.66 99.14 98.52 97.33 95.12 90.32
4/8/2017 04:00 to 3:10 91.18 92.68 91.23 90.98 90.53 90.12
4/8/2017 03:00 to 2:10 89.79 88.42 88.79 92.64 92.68 89.71
4/8/2017 02:00 to 1:10 91.84 90.73 88.97 89.75 88.68 88.79
4/8/2017 01:00 to 0:10 90.79 90.32 89.98 89.98 91.92 91.10

 

 

 

Air Temperature [°C]     6 entries per hour
Showing data from 3/20/2017 (23:50:00 Z) to 3/19/2017 (00:00:01 Z)
Previous Next [ Day | 3-Days | 7-Days ]
First Last
Prev [ Day | 3-Days | 7-Days ] Next
First Last

Start Time:     :
End Time:     :     
Time (in GMT) :00 :50 :40 :30 :20 :10
Previous Next [ Day | 3-Days | 7-Days ]
First Last
Prev [ Day | 3-Days | 7-Days ] Next
First Last


123 => good data
MM => data is determined as missing
-- => data not received/configured
Back to Top Back to Top
3/21/2017 00:00 to 23:10 -- 27.64 27.68 27.75 27.66 27.62
3/20/2017 23:00 to 22:10 27.64 27.64 27.75 27.72 27.69 27.71
3/20/2017 22:00 to 21:10 27.70 27.71 27.76 27.74 27.80 27.72
3/20/2017 21:00 to 20:10 27.68 27.63 27.65 27.64 27.61 27.67
3/20/2017 20:00 to 19:10 -- -- -- -- -- --
3/20/2017 19:00 to 18:10 27.68 27.50 27.24 27.31 27.68 28.00
3/20/2017 18:00 to 17:10 27.87 27.79 27.75 27.73 27.66 27.64
3/20/2017 17:00 to 16:10 27.55 27.52 27.49 27.47 27.49 27.46
3/20/2017 16:00 to 15:10 27.45 27.37 27.23 27.21 27.25 27.35
3/20/2017 15:00 to 14:10 27.34 27.12 26.95 26.90 26.99 26.85
3/20/2017 14:00 to 13:10 26.61 26.54 26.63 26.76 26.56 26.45
3/20/2017 13:00 to 12:10 26.18 25.71 25.52 24.75 24.33 25.36
3/20/2017 12:00 to 11:10 25.33 24.86 26.25 26.22 27.54 27.54
3/20/2017 11:00 to 10:10 27.54 27.62 27.71 27.55 27.46 27.66
3/20/2017 10:00 to 9:10 27.76 27.79 27.71 27.66 27.63 27.56
3/20/2017 09:00 to 8:10 27.29 27.49 27.40 27.40 27.26 27.03
3/20/2017 08:00 to 7:10 26.69 26.22 26.04 25.89 25.35 24.78
3/20/2017 07:00 to 6:10 27.41 27.22 26.75 27.10 26.82 26.74
3/20/2017 06:00 to 5:10 26.48 26.20 25.95 26.96 28.02 27.93
3/20/2017 05:00 to 4:10 28.01 28.01 28.02 28.02 28.01 28.04
3/20/2017 04:00 to 3:10 28.00 27.60 27.36 27.64 28.01 28.05
3/20/2017 03:00 to 2:10 28.08 28.00 28.04 28.01 28.08 28.11
3/20/2017 02:00 to 1:10 28.10 28.16 28.15 28.08 28.14 28.18
3/20/2017 01:00 to 0:10 28.08 28.11 28.07 28.08 28.16 28.03
3/20/2017 00:00 to 23:10 -- -- -- -- -- --
3/19/2017 23:00 to 22:10 28.02 27.90 27.92 27.86 27.91 28.01
3/19/2017 22:00 to 21:10 27.98 28.02 27.96 27.85 27.83 27.91
3/19/2017 21:00 to 20:10 27.98 27.87 27.86 27.99 27.91 27.80
3/19/2017 20:00 to 19:10 27.72 27.71 27.77 27.69 27.77 27.73
3/19/2017 19:00 to 18:10 27.75 27.82 27.75 27.77 27.68 27.77
3/19/2017 18:00 to 17:10 27.77 27.67 27.73 27.69 27.76 27.73
3/19/2017 17:00 to 16:10 27.72 27.73 27.70 27.73 27.71 27.72
3/19/2017 16:00 to 15:10 27.66 27.49 27.52 27.68 27.52 27.52
3/19/2017 15:00 to 14:10 27.47 27.38 27.23 27.16 27.14 27.12
3/19/2017 14:00 to 13:10 27.10 27.15 27.19 27.08 27.09 27.09
3/19/2017 13:00 to 12:10 27.03 27.10 27.14 27.11 27.08 27.04
3/19/2017 12:00 to 11:10 27.07 27.09 27.11 27.09 27.05 27.01
3/19/2017 11:00 to 10:10 26.96 26.95 26.90 26.96 26.97 27.02
3/19/2017 10:00 to 9:10 27.14 27.09 27.01 26.78 26.84 26.86
3/19/2017 09:00 to 8:10 27.25 27.50 27.58 27.54 27.50 27.41
3/19/2017 08:00 to 7:10 27.32 27.40 27.39 27.33 27.31 27.33
3/19/2017 07:00 to 6:10 27.04 26.84 26.58 26.62 26.96 26.71
3/19/2017 06:00 to 5:10 26.52 26.08 25.84 25.59 25.01 25.83
3/19/2017 05:00 to 4:10 25.99 25.47 25.58 26.44 26.23 26.40
3/19/2017 04:00 to 3:10 27.48 27.93 27.88 27.85 27.87 27.91
3/19/2017 03:00 to 2:10 27.87 27.82 27.82 27.79 27.95 27.93
3/19/2017 02:00 to 1:10 27.88 27.92 28.04 28.05 27.89 28.05
3/19/2017 01:00 to 0:10 27.92 27.95 27.97 28.04 27.99 28.02